createdAt,value
2022-10-05T00:02:36.650Z,16.23
2022-10-05T00:05:38.834Z,21.23
2022-10-05T00:08:40.547Z,19.17
2022-10-05T00:11:42.811Z,12.30
2022-10-05T00:14:46.203Z,13.10
2022-10-05T00:17:47.864Z,12.67
2022-10-05T00:20:49.459Z,10.20
2022-10-05T00:23:52.119Z,10.77
2022-10-05T00:26:57.735Z,17.10
2022-10-05T00:30:07.742Z,11.63
2022-10-05T00:33:09.367Z,10.93
2022-10-05T00:36:11.151Z,14.50
2022-10-05T00:39:12.797Z,14.93
2022-10-05T00:42:22.084Z,14.93
2022-10-05T00:45:51.389Z,15.97
2022-10-05T00:49:24.740Z,16.37
2022-10-05T00:52:45.532Z,19.53
2022-10-05T00:55:53.302Z,16.37
2022-10-05T00:59:20.542Z,18.83
2022-10-05T01:02:46.630Z,18.20
2022-10-05T01:06:16.354Z,16.67
2022-10-05T01:09:44.831Z,15.70
2022-10-05T01:12:58.336Z,17.80
2022-10-05T01:16:07.453Z,16.77
2022-10-05T01:19:21.429Z,16.97
2022-10-05T01:22:57.959Z,17.73
2022-10-05T01:26:44.120Z,17.00
2022-10-05T01:29:59.891Z,17.30
2022-10-05T01:33:20.137Z,21.50
2022-10-05T01:36:52.572Z,14.43
2022-10-05T01:40:15.563Z,14.53
2022-10-05T01:43:55.874Z,17.50
2022-10-05T01:47:21.426Z,16.30
2022-10-05T01:50:37.221Z,14.87
2022-10-05T01:54:22.353Z,17.57
2022-10-05T01:57:46.050Z,15.67
2022-10-05T02:00:56.530Z,14.23
2022-10-05T02:04:43.602Z,22.63
2022-10-05T02:07:58.601Z,19.70
2022-10-05T02:11:07.514Z,19.70
2022-10-05T02:14:15.089Z,21.77
2022-10-05T02:17:27.445Z,14.77
2022-10-05T02:20:32.330Z,25.43
2022-10-05T02:23:38.347Z,19.93
2022-10-05T02:26:41.467Z,21.00
2022-10-05T02:29:47.692Z,23.93
2022-10-05T02:33:32.396Z,21.00
2022-10-05T02:36:36.305Z,19.83
2022-10-05T02:40:04.780Z,20.20
2022-10-05T02:43:27.755Z,20.30
2022-10-05T02:46:58.081Z,18.47
2022-10-05T02:50:27.038Z,17.03
2022-10-05T02:53:47.330Z,17.40
2022-10-05T02:57:07.892Z,21.30
2022-10-05T03:00:14.373Z,25.37
2022-10-05T03:03:31.969Z,23.30
2022-10-05T03:06:42.175Z,25.00
2022-10-05T03:10:02.665Z,22.97
2022-10-05T03:13:21.701Z,23.27
2022-10-05T03:16:58.187Z,25.83
2022-10-05T03:20:31.267Z,26.23
2022-10-05T03:24:01.612Z,25.70
2022-10-05T03:27:22.805Z,29.00
2022-10-05T03:30:26.541Z,34.10
2022-10-05T03:33:34.716Z,32.97
2022-10-05T03:36:54.648Z,33.93
2022-10-05T03:40:22.398Z,32.77
2022-10-05T03:43:52.313Z,32.00
2022-10-05T03:47:18.996Z,33.00
2022-10-05T03:50:51.665Z,30.20
2022-10-05T03:53:59.780Z,33.93
2022-10-05T03:57:16.826Z,36.73
2022-10-05T04:00:25.554Z,47.73
2022-10-05T04:03:32.690Z,39.60
2022-10-05T04:06:38.440Z,35.40
2022-10-05T04:09:45.555Z,93.13
2022-10-05T04:12:52.326Z,63.60
2022-10-05T04:15:57.202Z,115.50
2022-10-05T04:19:32.561Z,80.63
2022-10-05T04:22:42.826Z,56.40
2022-10-05T04:25:56.440Z,67.87
2022-10-05T04:29:35.430Z,57.30
2022-10-05T04:32:45.014Z,52.30
2022-10-05T04:36:09.545Z,77.43
2022-10-05T04:39:50.562Z,74.03
2022-10-05T04:43:16.627Z,209.63
2022-10-05T04:46:39.612Z,167.20
2022-10-05T04:49:55.940Z,217.37
2022-10-05T04:53:17.584Z,161.70
2022-10-05T04:56:26.107Z,80.70
2022-10-05T04:59:51.527Z,110.27
2022-10-05T05:03:21.475Z,141.53
2022-10-05T05:06:28.911Z,121.73
2022-10-05T05:09:54.731Z,89.00
2022-10-05T05:13:10.345Z,78.37
2022-10-05T05:16:37.127Z,57.37
2022-10-05T05:19:39.112Z,42.13
2022-10-05T05:22:45.910Z,45.17
2022-10-05T05:26:22.771Z,46.47
2022-10-05T05:30:09.040Z,94.40
2022-10-05T05:33:33.483Z,60.70
2022-10-05T05:37:01.462Z,109.27
2022-10-05T05:40:21.818Z,125.60
2022-10-05T05:43:53.327Z,103.77
2022-10-05T05:47:19.495Z,215.77
2022-10-05T05:50:53.309Z,113.07
2022-10-05T05:53:59.530Z,122.37
2022-10-05T05:57:21.796Z,187.03
2022-10-05T06:00:26.275Z,93.47
2022-10-05T06:03:37.417Z,107.73
2022-10-05T06:06:44.795Z,86.10
2022-10-05T06:10:15.660Z,124.57
2022-10-05T06:13:26.700Z,124.07
2022-10-05T06:16:41.874Z,76.83
2022-10-05T06:19:45.825Z,64.13
2022-10-05T06:22:49.920Z,63.17
2022-10-05T06:26:39.759Z,75.07
2022-10-05T06:30:03.523Z,48.43
2022-10-05T06:33:19.298Z,57.37
2022-10-05T06:36:39.851Z,51.33
2022-10-05T06:40:12.582Z,43.80
2022-10-05T06:43:51.653Z,37.17
2022-10-05T06:47:18.153Z,32.57
2022-10-05T06:50:52.691Z,31.87
2022-10-05T06:54:27.244Z,28.30
2022-10-05T06:57:47.767Z,24.97
2022-10-05T07:00:55.974Z,31.13
2022-10-05T07:04:04.308Z,30.30
2022-10-05T07:07:23.158Z,38.63
2022-10-05T07:10:59.981Z,30.60
2022-10-05T07:14:25.760Z,31.23
2022-10-05T07:17:52.465Z,39.80
2022-10-05T07:21:19.091Z,31.50
2022-10-05T07:24:36.609Z,38.20
2022-10-05T07:27:51.761Z,35.27
2022-10-05T07:31:00.463Z,37.70
2022-10-05T07:34:14.220Z,35.53
2022-10-05T07:37:57.387Z,34.67
2022-10-05T07:41:11.816Z,36.20
2022-10-05T07:44:38.387Z,39.97
2022-10-05T07:47:51.024Z,31.40
2022-10-05T07:51:18.965Z,34.80
2022-10-05T07:54:42.492Z,32.27
2022-10-05T07:58:02.279Z,33.50
2022-10-05T08:01:24.866Z,34.17
2022-10-05T08:04:39.427Z,34.60
2022-10-05T08:07:43.579Z,34.77
2022-10-05T08:11:09.393Z,32.70
2022-10-05T08:14:22.071Z,36.23
2022-10-05T08:17:42.510Z,32.63
2022-10-05T08:20:52.973Z,38.60
2022-10-05T08:23:58.079Z,36.10
2022-10-05T08:27:22.027Z,28.67
2022-10-05T08:30:24.557Z,33.40
2022-10-05T08:33:27.835Z,34.07
2022-10-05T08:36:51.622Z,37.00
2022-10-05T08:40:33.677Z,41.40
2022-10-05T08:44:21.239Z,40.67
2022-10-05T08:47:39.636Z,40.97
2022-10-05T08:51:32.628Z,34.63
2022-10-05T08:54:38.485Z,41.50
2022-10-05T08:58:17.743Z,42.33
2022-10-05T09:01:31.405Z,40.43
2022-10-05T09:05:08.610Z,37.50
2022-10-05T09:08:49.454Z,40.13
2022-10-05T09:12:17.096Z,39.97
2022-10-05T09:15:56.417Z,35.47
2022-10-05T09:19:07.191Z,42.70
2022-10-05T09:22:28.308Z,42.73
2022-10-05T09:25:44.819Z,47.27
2022-10-05T09:29:04.966Z,45.67
2022-10-05T09:32:53.165Z,46.13
2022-10-05T09:36:32.357Z,51.53
2022-10-05T09:40:11.537Z,49.00
2022-10-05T09:43:29.640Z,57.07
2022-10-05T09:46:52.961Z,61.73
2022-10-05T09:50:37.820Z,56.27
2022-10-05T09:54:03.382Z,54.73
2022-10-05T09:57:23.011Z,61.93
2022-10-05T10:01:03.878Z,65.57
2022-10-05T10:04:38.327Z,57.33
2022-10-05T10:08:24.404Z,43.80
2022-10-05T10:11:54.479Z,45.83
2022-10-05T10:15:20.984Z,37.70
2022-10-05T10:18:45.880Z,36.00
2022-10-05T10:22:09.370Z,31.20
2022-10-05T10:25:53.795Z,32.43
2022-10-05T10:29:15.090Z,25.87
2022-10-05T10:32:33.144Z,30.53
2022-10-05T10:35:55.423Z,22.43
2022-10-05T10:39:02.471Z,22.10
2022-10-05T10:42:43.450Z,22.40
2022-10-05T10:45:59.030Z,23.47
2022-10-05T10:49:20.387Z,24.10
2022-10-05T10:52:28.261Z,22.87
2022-10-05T10:55:47.406Z,19.20
2022-10-05T10:59:06.822Z,16.10
2022-10-05T11:02:44.275Z,18.33
2022-10-05T11:06:12.261Z,18.00
2022-10-05T11:09:35.526Z,18.47
2022-10-05T11:12:58.045Z,13.33
2022-10-05T11:16:18.766Z,12.93
2022-10-05T11:20:05.370Z,14.43
2022-10-05T11:23:29.628Z,11.70
2022-10-05T11:26:55.671Z,12.00
2022-10-05T11:30:11.583Z,11.03
2022-10-05T11:33:34.839Z,12.80
2022-10-05T11:36:55.367Z,13.97
2022-10-05T11:40:16.613Z,10.33
2022-10-05T11:43:33.372Z,12.10
2022-10-05T11:47:12.546Z,7.70
2022-10-05T11:50:21.228Z,9.10
2022-10-05T11:53:41.351Z,10.13
2022-10-05T11:57:02.806Z,8.17
2022-10-05T12:00:21.704Z,10.20
2022-10-05T12:03:36.510Z,8.90
2022-10-05T12:07:02.765Z,8.57
2022-10-05T12:10:31.025Z,7.13
2022-10-05T12:14:02.812Z,6.77
2022-10-05T12:17:27.165Z,7.43
2022-10-05T12:20:37.875Z,8.00
2022-10-05T12:23:54.713Z,8.57
2022-10-05T12:27:01.277Z,7.97
2022-10-05T12:30:18.412Z,7.73
2022-10-05T12:33:26.675Z,8.27
2022-10-05T12:37:05.990Z,7.73
2022-10-05T12:40:10.745Z,12.60
2022-10-05T12:43:40.357Z,9.13
2022-10-05T12:46:51.408Z,8.40
2022-10-05T12:50:19.268Z,8.40
2022-10-05T12:53:32.752Z,9.80
2022-10-05T12:56:44.466Z,8.03
2022-10-05T13:00:10.687Z,8.30
2022-10-05T13:03:26.373Z,8.50
2022-10-05T13:06:44.410Z,8.93
2022-10-05T13:10:02.603Z,9.00
2022-10-05T13:13:14.508Z,10.50
2022-10-05T13:16:56.433Z,8.47
2022-10-05T13:20:02.362Z,8.63
2022-10-05T13:23:22.858Z,10.93
2022-10-05T13:26:46.050Z,8.37
2022-10-05T13:30:12.038Z,10.97
2022-10-05T13:33:24.470Z,9.77
2022-10-05T13:36:38.280Z,7.83
2022-10-05T13:40:01.555Z,10.23
2022-10-05T13:43:21.224Z,9.93
2022-10-05T13:46:49.332Z,10.77
2022-10-05T13:50:05.560Z,9.20
2022-10-05T13:53:12.959Z,6.57
2022-10-05T13:56:31.458Z,7.40
2022-10-05T13:59:51.082Z,7.93
2022-10-05T14:02:56.143Z,8.23
2022-10-05T14:06:01.299Z,7.70
2022-10-05T14:09:03.698Z,7.77
2022-10-05T14:12:05.224Z,8.50
2022-10-05T14:15:41.979Z,8.33
2022-10-05T14:18:56.481Z,6.80
2022-10-05T14:22:10.972Z,7.50
2022-10-05T14:25:17.963Z,6.10
2022-10-05T14:28:38.300Z,5.33
2022-10-05T14:31:49.813Z,6.10
2022-10-05T14:35:05.129Z,7.53
2022-10-05T14:38:29.341Z,5.87
2022-10-05T14:41:36.213Z,5.80
2022-10-05T14:44:37.844Z,7.83
2022-10-05T14:47:53.380Z,5.20
2022-10-05T14:50:57.910Z,5.67
2022-10-05T14:54:01.483Z,6.73
2022-10-05T14:57:25.555Z,8.73
2022-10-05T15:00:28.960Z,8.23
2022-10-05T15:03:42.140Z,4.60
2022-10-05T15:06:55.522Z,5.33
2022-10-05T15:10:26.797Z,5.00
2022-10-05T15:13:32.706Z,7.20
2022-10-05T15:16:38.917Z,4.70
2022-10-05T15:19:47.502Z,8.00
2022-10-05T15:23:26.884Z,6.87
2022-10-05T15:26:36.109Z,6.10
2022-10-05T15:30:09.104Z,10.43
2022-10-05T15:33:38.218Z,6.00
2022-10-05T15:36:52.675Z,5.37
2022-10-05T15:40:03.555Z,5.63
2022-10-05T15:43:12.510Z,6.47
2022-10-05T15:46:36.009Z,4.93
2022-10-05T15:49:57.117Z,4.17
2022-10-05T15:53:23.116Z,4.00
2022-10-05T15:56:38.336Z,6.40
2022-10-05T15:59:56.397Z,4.47
2022-10-05T16:03:12.406Z,4.23
2022-10-05T16:06:51.545Z,5.30
2022-10-05T16:10:17.187Z,4.50
2022-10-05T16:13:38.619Z,4.20
2022-10-05T16:16:43.001Z,6.20
2022-10-05T16:20:14.515Z,6.00
2022-10-05T16:23:40.757Z,8.40
2022-10-05T16:26:54.097Z,5.43
2022-10-05T16:30:13.493Z,4.50
2022-10-05T16:33:29.151Z,8.20
2022-10-05T16:36:47.838Z,4.07
2022-10-05T16:40:01.245Z,5.90
2022-10-05T16:43:32.123Z,6.47
2022-10-05T16:46:45.879Z,4.90
2022-10-05T16:50:01.627Z,4.50
2022-10-05T16:53:17.331Z,5.60
2022-10-05T16:56:25.189Z,5.47
2022-10-05T16:59:42.232Z,4.70
2022-10-05T17:03:27.265Z,10.27
2022-10-05T17:06:43.988Z,8.40
2022-10-05T17:10:08.090Z,8.70
2022-10-05T17:13:31.279Z,7.23
2022-10-05T17:16:52.494Z,6.67
2022-10-05T17:20:23.497Z,8.00
2022-10-05T17:23:53.662Z,6.33
2022-10-05T17:27:33.779Z,6.63
2022-10-05T17:31:06.332Z,20.97
2022-10-05T17:34:38.580Z,7.07
2022-10-05T17:38:05.280Z,8.57
2022-10-05T17:41:17.484Z,10.13
2022-10-05T17:44:21.719Z,9.23
2022-10-05T17:47:58.510Z,7.57
2022-10-05T17:51:18.645Z,13.77
2022-10-05T17:54:41.843Z,8.80
2022-10-05T17:57:43.877Z,6.73
2022-10-05T18:00:57.632Z,8.87
2022-10-05T18:04:11.253Z,6.10
2022-10-05T18:07:22.582Z,6.73
2022-10-05T18:10:28.724Z,6.97
2022-10-05T18:14:19.547Z,10.60
2022-10-05T18:17:47.324Z,4.63
2022-10-05T18:21:24.076Z,5.60
2022-10-05T18:25:04.211Z,5.07
2022-10-05T18:28:35.967Z,4.30
2022-10-05T18:31:46.992Z,3.70
2022-10-05T18:35:11.654Z,6.93
2022-10-05T18:38:34.231Z,7.40
2022-10-05T18:41:54.883Z,3.30
2022-10-05T18:45:11.094Z,4.73
2022-10-05T18:48:36.377Z,4.90
2022-10-05T18:51:58.773Z,5.70
2022-10-05T18:55:20.199Z,6.83
2022-10-05T18:59:11.062Z,2.90
2022-10-05T19:02:24.029Z,4.90
2022-10-05T19:05:54.157Z,3.30
2022-10-05T19:09:06.034Z,5.53
2022-10-05T19:12:29.562Z,3.20
2022-10-05T19:15:58.994Z,4.10
2022-10-05T19:19:29.383Z,3.57
2022-10-05T19:22:55.829Z,3.13
2022-10-05T19:26:02.531Z,3.67
2022-10-05T19:29:12.985Z,2.80
2022-10-05T19:32:33.392Z,4.90
2022-10-05T19:36:00.871Z,2.80
2022-10-05T19:39:40.116Z,3.97
2022-10-05T19:43:26.827Z,4.00
2022-10-05T19:46:30.606Z,7.00
2022-10-05T19:49:48.770Z,3.13
2022-10-05T19:52:57.202Z,3.40
2022-10-05T19:56:21.342Z,2.57
2022-10-05T19:59:28.033Z,4.40
2022-10-05T20:02:32.464Z,3.30
2022-10-05T20:05:34.385Z,3.23
2022-10-05T20:08:44.741Z,4.27
2022-10-05T20:11:51.402Z,3.00
2022-10-05T20:15:26.438Z,4.07
2022-10-05T20:19:30.202Z,3.20
2022-10-05T20:22:49.039Z,2.83
2022-10-05T20:26:12.798Z,3.70
2022-10-05T20:29:14.458Z,2.90
2022-10-05T20:32:20.787Z,3.70
2022-10-05T20:35:22.884Z,3.30
2022-10-05T20:38:24.784Z,5.13
2022-10-05T20:41:30.245Z,5.73
2022-10-05T20:44:32.012Z,3.00
2022-10-05T20:47:33.719Z,7.20
2022-10-05T20:50:36.992Z,4.20
2022-10-05T20:53:38.727Z,5.60
2022-10-05T20:56:42.492Z,3.80
2022-10-05T20:59:44.489Z,5.27
2022-10-05T21:02:46.844Z,4.10
2022-10-05T21:05:48.441Z,4.20
2022-10-05T21:08:54.414Z,4.53
2022-10-05T21:11:56.076Z,3.60
2022-10-05T21:14:59.757Z,3.70
2022-10-05T21:18:01.356Z,4.57
2022-10-05T21:21:02.993Z,4.87
2022-10-05T21:24:05.502Z,4.37
2022-10-05T21:27:08.082Z,6.53
2022-10-05T21:30:10.010Z,4.47
2022-10-05T21:33:11.704Z,8.00
2022-10-05T21:36:14.573Z,5.33
2022-10-05T21:39:16.462Z,3.73
2022-10-05T21:42:20.007Z,4.40
2022-10-05T21:45:25.236Z,4.10
2022-10-05T21:48:27.581Z,3.90
2022-10-05T21:51:29.501Z,4.53
2022-10-05T21:54:32.557Z,4.47
2022-10-05T21:57:35.505Z,4.00
2022-10-05T22:00:37.174Z,7.33
2022-10-05T22:03:38.871Z,4.27
2022-10-05T22:06:40.503Z,5.20
2022-10-05T22:09:42.206Z,4.87
2022-10-05T22:12:46.216Z,5.80
2022-10-05T22:15:47.822Z,4.80
2022-10-05T22:18:50.108Z,3.83
2022-10-05T22:21:51.695Z,4.57
2022-10-05T22:24:54.005Z,5.27
2022-10-05T22:27:55.799Z,5.00
2022-10-05T22:30:59.484Z,4.90
2022-10-05T22:34:01.141Z,4.93
2022-10-05T22:37:04.090Z,4.90
2022-10-05T22:40:07.460Z,6.23
2022-10-05T22:43:09.044Z,4.10
2022-10-05T22:46:15.462Z,4.37
2022-10-05T22:49:17.306Z,4.60
2022-10-05T22:52:18.987Z,7.83
2022-10-05T22:55:21.039Z,6.03
2022-10-05T22:58:22.732Z,4.43
2022-10-05T23:01:24.511Z,4.67
2022-10-05T23:04:26.497Z,5.90
2022-10-05T23:07:28.318Z,5.57
2022-10-05T23:10:29.983Z,4.90
2022-10-05T23:13:32.861Z,6.30
2022-10-05T23:16:34.539Z,4.93
2022-10-05T23:19:38.878Z,6.57
2022-10-05T23:22:40.591Z,5.90
2022-10-05T23:25:42.355Z,8.57
2022-10-05T23:28:47.915Z,5.90
2022-10-05T23:31:49.610Z,4.87
2022-10-05T23:34:51.284Z,4.60
2022-10-05T23:37:53.000Z,5.50
2022-10-05T23:40:55.987Z,5.27
2022-10-05T23:43:57.602Z,11.77
2022-10-05T23:46:59.187Z,7.93
2022-10-05T23:50:00.951Z,5.20
2022-10-05T23:53:02.633Z,5.47
2022-10-05T23:56:04.774Z,6.10
2022-10-05T23:59:06.379Z,7.00
